createdAt,value
2022-12-26T00:02:22.052Z,44.42
2022-12-26T00:05:27.577Z,42.67
2022-12-26T00:08:32.970Z,43.28
2022-12-26T00:11:38.594Z,43.97
2022-12-26T00:14:43.600Z,43.53
2022-12-26T00:17:48.873Z,43.33
2022-12-26T00:20:54.054Z,42.63
2022-12-26T00:24:00.141Z,42.45
2022-12-26T00:27:05.394Z,46.20
2022-12-26T00:30:11.212Z,43.55
2022-12-26T00:33:16.479Z,46.15
2022-12-26T00:36:24.509Z,45.90
2022-12-26T00:39:29.789Z,46.25
2022-12-26T00:42:35.055Z,43.47
2022-12-26T00:45:45.741Z,43.72
2022-12-26T00:48:51.170Z,46.00
2022-12-26T00:51:56.357Z,45.70
2022-12-26T00:55:01.493Z,46.60
2022-12-26T00:58:06.852Z,51.58
2022-12-26T01:01:19.615Z,45.70
2022-12-26T01:04:25.132Z,47.50
2022-12-26T01:07:35.413Z,47.03
2022-12-26T01:11:10.500Z,47.70
2022-12-26T01:14:18.525Z,44.72
2022-12-26T01:17:23.794Z,46.47
2022-12-26T01:20:29.501Z,45.55
2022-12-26T01:23:35.080Z,48.95
2022-12-26T01:26:40.258Z,47.78
2022-12-26T01:29:45.920Z,46.25
2022-12-26T01:32:51.502Z,46.30
2022-12-26T01:35:58.065Z,47.72
2022-12-26T01:39:03.568Z,47.70
2022-12-26T01:42:15.073Z,47.42
2022-12-26T01:45:25.140Z,49.03
2022-12-26T01:48:34.805Z,46.38
2022-12-26T01:51:44.467Z,46.78
2022-12-26T01:54:53.322Z,47.20
2022-12-26T01:58:03.647Z,47.60
2022-12-26T02:01:11.441Z,48.83
2022-12-26T02:04:41.691Z,47.00
2022-12-26T02:07:47.899Z,49.53
2022-12-26T02:11:02.682Z,49.17
2022-12-26T02:14:08.810Z,50.20
2022-12-26T02:17:14.608Z,47.28
2022-12-26T02:20:29.884Z,47.58
2022-12-26T02:24:19.858Z,48.20
2022-12-26T02:28:00.951Z,49.63
2022-12-26T02:31:29.415Z,45.75
2022-12-26T02:35:00.981Z,47.75
2022-12-26T02:38:21.316Z,46.58
2022-12-26T02:41:40.058Z,47.80
2022-12-26T02:45:25.417Z,46.45
2022-12-26T02:49:24.894Z,47.28
2022-12-26T02:53:00.812Z,46.15
2022-12-26T02:56:51.790Z,46.55
2022-12-26T03:00:24.366Z,45.97
2022-12-26T03:04:16.482Z,47.83
2022-12-26T03:07:48.720Z,44.78
2022-12-26T03:11:17.317Z,46.13
2022-12-26T03:14:50.271Z,44.97
2022-12-26T03:18:06.293Z,48.33
2022-12-26T03:21:13.048Z,45.85
2022-12-26T03:24:19.083Z,48.38
2022-12-26T03:27:24.859Z,48.63
2022-12-26T03:30:49.616Z,45.67
2022-12-26T03:34:18.726Z,45.58
2022-12-26T03:37:55.677Z,47.05
2022-12-26T03:41:28.060Z,45.53
2022-12-26T03:48:50.379Z,44.70
2022-12-26T03:52:33.948Z,44.38
2022-12-26T03:56:14.685Z,42.42
2022-12-26T04:00:24.355Z,45.67
2022-12-26T04:03:51.997Z,46.67
2022-12-26T04:07:27.056Z,46.25
2022-12-26T04:11:05.901Z,46.38
2022-12-26T04:15:07.239Z,42.10
2022-12-26T04:18:39.441Z,44.67
2022-12-26T04:22:13.591Z,41.90
2022-12-26T04:25:49.741Z,42.67
2022-12-26T04:29:16.569Z,44.85
2022-12-26T04:32:49.963Z,43.53
2022-12-26T04:36:21.686Z,43.75
2022-12-26T04:39:52.354Z,43.60
2022-12-26T04:43:47.504Z,46.78
2022-12-26T04:46:47.911Z,44.40
2022-12-26T04:50:11.665Z,41.80
2022-12-26T04:53:17.526Z,44.70
2022-12-26T04:56:23.165Z,40.50
2022-12-26T04:59:28.880Z,43.17
2022-12-26T05:02:52.119Z,41.17
2022-12-26T05:06:15.342Z,43.90
2022-12-26T05:09:36.051Z,42.50
2022-12-26T05:12:41.350Z,42.58
2022-12-26T05:16:05.039Z,42.35
2022-12-26T05:19:33.911Z,42.55
2022-12-26T05:23:00.983Z,40.30
2022-12-26T05:26:30.567Z,43.35
2022-12-26T05:29:35.855Z,49.63
2022-12-26T05:32:59.473Z,44.45
2022-12-26T05:36:05.024Z,41.80
2022-12-26T05:39:11.052Z,42.42
2022-12-26T05:42:16.832Z,41.45
2022-12-26T05:45:22.042Z,39.90
2022-12-26T05:48:27.080Z,40.70
2022-12-26T05:51:32.580Z,43.92
2022-12-26T05:54:37.981Z,42.88
2022-12-26T05:57:43.051Z,40.15
2022-12-26T06:00:48.496Z,42.42
2022-12-26T06:03:56.634Z,43.70
2022-12-26T06:07:02.742Z,45.47
2022-12-26T06:10:09.063Z,40.65
2022-12-26T06:13:14.993Z,41.90
2022-12-26T06:16:20.778Z,43.75
2022-12-26T06:19:26.360Z,41.33
2022-12-26T06:22:32.133Z,41.35
2022-12-26T06:25:37.599Z,44.00
2022-12-26T06:28:44.183Z,41.50
2022-12-26T06:31:50.135Z,40.72
2022-12-26T06:34:55.100Z,43.42
2022-12-26T06:38:00.323Z,40.72
2022-12-26T06:41:11.530Z,40.08
2022-12-26T06:44:18.664Z,44.50
2022-12-26T06:47:24.687Z,45.05
2022-12-26T06:50:29.960Z,44.95
2022-12-26T06:53:35.346Z,45.58
2022-12-26T06:56:40.865Z,44.88
2022-12-26T06:59:45.867Z,47.20
2022-12-26T07:02:52.795Z,47.92
2022-12-26T07:06:02.044Z,46.70
2022-12-26T07:09:17.277Z,44.22
2022-12-26T07:12:22.737Z,47.13
2022-12-26T07:15:29.545Z,47.78
2022-12-26T07:18:34.726Z,48.50
2022-12-26T07:21:40.968Z,47.22
2022-12-26T07:24:46.832Z,43.83
2022-12-26T07:27:55.069Z,43.63
2022-12-26T07:31:01.008Z,45.92
2022-12-26T07:34:06.769Z,43.63
2022-12-26T07:37:11.964Z,44.50
2022-12-26T07:40:17.231Z,42.50
2022-12-26T07:43:22.837Z,42.88
2022-12-26T07:46:29.745Z,43.50
2022-12-26T07:49:34.950Z,40.17
2022-12-26T07:52:40.061Z,40.00
2022-12-26T07:55:45.159Z,42.22
2022-12-26T07:58:51.236Z,41.05
2022-12-26T08:01:58.299Z,40.10
2022-12-26T08:05:03.799Z,43.17
2022-12-26T08:08:09.112Z,42.60
2022-12-26T08:11:21.185Z,42.80
2022-12-26T08:14:26.432Z,41.72
2022-12-26T08:17:33.059Z,42.17
2022-12-26T08:20:38.253Z,42.25
2022-12-26T08:23:43.409Z,45.75
2022-12-26T08:26:48.552Z,41.65
2022-12-26T08:29:53.509Z,44.58
2022-12-26T08:32:58.675Z,43.78
2022-12-26T08:36:09.264Z,45.53
2022-12-26T08:39:14.675Z,44.80
2022-12-26T08:42:21.228Z,44.75
2022-12-26T08:45:26.413Z,42.92
2022-12-26T08:48:32.393Z,43.20
2022-12-26T08:51:38.350Z,43.65
2022-12-26T08:54:43.547Z,49.05
2022-12-26T08:57:48.960Z,44.65
2022-12-26T09:00:55.609Z,46.10
2022-12-26T09:04:04.510Z,48.17
2022-12-26T09:07:10.188Z,43.47
2022-12-26T09:10:18.387Z,42.20
2022-12-26T09:13:23.849Z,43.13
2022-12-26T09:16:37.506Z,43.28
2022-12-26T09:19:43.709Z,40.53
2022-12-26T09:22:51.511Z,41.63
2022-12-26T09:26:03.686Z,41.42
2022-12-26T09:29:12.900Z,43.03
2022-12-26T09:32:18.183Z,44.45
2022-12-26T09:35:23.364Z,42.13
2022-12-26T09:38:28.877Z,40.45
2022-12-26T09:41:45.732Z,41.15
2022-12-26T09:44:51.078Z,46.03
2022-12-26T09:48:19.810Z,41.50
2022-12-26T09:51:27.433Z,41.22
2022-12-26T09:54:41.179Z,41.00
2022-12-26T09:57:50.724Z,42.42
2022-12-26T10:01:17.038Z,40.70
2022-12-26T10:04:30.376Z,39.58
2022-12-26T10:08:01.721Z,41.53
2022-12-26T10:11:16.042Z,40.88
2022-12-26T10:14:40.283Z,42.13
2022-12-26T10:18:18.644Z,38.58
2022-12-26T10:21:49.809Z,41.42
2022-12-26T10:24:59.376Z,40.38
2022-12-26T10:28:09.009Z,38.78
2022-12-26T10:31:25.283Z,41.58
2022-12-26T10:34:47.581Z,37.22
2022-12-26T10:37:54.765Z,42.42
2022-12-26T10:41:26.620Z,41.13
2022-12-26T10:44:32.218Z,42.17
2022-12-26T10:47:42.817Z,38.95
2022-12-26T10:50:49.573Z,38.22
2022-12-26T10:53:55.503Z,39.40
2022-12-26T10:57:03.304Z,40.55
2022-12-26T11:00:29.506Z,40.80
2022-12-26T11:03:34.753Z,40.03
2022-12-26T11:06:42.251Z,39.67
2022-12-26T11:09:56.223Z,40.55
2022-12-26T11:13:06.511Z,42.53
2022-12-26T11:16:12.257Z,41.40
2022-12-26T11:19:33.374Z,41.35
2022-12-26T11:22:38.606Z,42.40
2022-12-26T11:25:56.649Z,41.97
2022-12-26T11:29:25.342Z,40.83
2022-12-26T11:32:30.957Z,40.08
2022-12-26T11:35:38.239Z,42.28
2022-12-26T11:38:54.362Z,41.28
2022-12-26T11:42:00.049Z,40.03
2022-12-26T11:45:11.870Z,41.40
2022-12-26T11:48:23.574Z,40.85
2022-12-26T11:51:35.492Z,41.40
2022-12-26T11:54:51.334Z,42.08
2022-12-26T11:58:02.366Z,43.35
2022-12-26T12:01:13.184Z,43.17
2022-12-26T12:04:18.489Z,42.22
2022-12-26T12:07:28.180Z,43.13
2022-12-26T12:10:52.238Z,45.40
2022-12-26T12:14:25.382Z,42.35
2022-12-26T12:17:56.480Z,41.85
2022-12-26T12:21:33.729Z,43.97
2022-12-26T12:24:53.975Z,39.22
2022-12-26T12:28:08.288Z,40.72
2022-12-26T12:31:32.485Z,42.20
2022-12-26T12:34:56.200Z,50.00
2022-12-26T12:38:27.941Z,43.40
2022-12-26T12:42:09.757Z,40.85
2022-12-26T12:45:27.440Z,40.58
2022-12-26T12:48:43.389Z,40.95
2022-12-26T12:51:57.938Z,45.35
2022-12-26T12:55:34.120Z,42.28
2022-12-26T12:59:08.716Z,43.88
2022-12-26T13:02:35.472Z,42.50
2022-12-26T13:06:00.096Z,40.38
2022-12-26T13:09:17.633Z,43.50
2022-12-26T13:12:27.865Z,41.30
2022-12-26T13:15:56.998Z,42.95
2022-12-26T13:19:07.228Z,44.08
2022-12-26T13:23:14.068Z,41.38
2022-12-26T13:26:25.806Z,47.20
2022-12-26T13:32:38.019Z,61.88
2022-12-26T13:35:59.949Z,49.92
2022-12-26T13:39:05.163Z,45.97
2022-12-26T13:42:29.223Z,43.90
2022-12-26T13:45:43.373Z,44.10
2022-12-26T13:48:59.476Z,45.17
2022-12-26T13:52:11.243Z,42.38
2022-12-26T13:55:16.979Z,45.83
2022-12-26T13:58:43.688Z,43.08
2022-12-26T14:02:50.059Z,44.03
2022-12-26T14:06:23.943Z,45.70
2022-12-26T14:09:43.684Z,46.25
2022-12-26T14:12:57.982Z,43.08
2022-12-26T14:16:53.753Z,43.38
2022-12-26T14:20:22.966Z,44.17
2022-12-26T14:23:47.503Z,43.55
2022-12-26T14:27:13.224Z,39.33
2022-12-26T14:30:52.157Z,41.25
2022-12-26T14:34:33.571Z,40.50
2022-12-26T14:37:56.915Z,38.67
2022-12-26T14:41:34.726Z,41.90
2022-12-26T14:44:43.597Z,42.55
2022-12-26T14:47:50.078Z,42.17
2022-12-26T14:51:04.986Z,42.78
2022-12-26T14:54:37.236Z,40.72
2022-12-26T14:57:46.407Z,40.75
2022-12-26T15:00:52.395Z,41.42
2022-12-26T15:04:09.698Z,42.53
2022-12-26T15:07:36.589Z,44.08
2022-12-26T15:11:25.574Z,45.20
2022-12-26T15:14:51.823Z,44.67
2022-12-26T15:18:43.398Z,47.67
2022-12-26T15:22:07.953Z,42.78
2022-12-26T15:25:31.716Z,47.50
2022-12-26T15:28:51.863Z,45.10
2022-12-26T15:32:23.961Z,43.42
2022-12-26T15:39:13.756Z,43.00
2022-12-26T15:42:36.615Z,44.85
2022-12-26T15:46:03.885Z,46.50
2022-12-26T15:49:38.921Z,44.00
2022-12-26T15:53:10.217Z,44.25
2022-12-26T15:56:24.598Z,46.80
2022-12-26T15:59:48.321Z,44.53
2022-12-26T16:03:21.654Z,47.40
2022-12-26T16:07:12.310Z,44.33
2022-12-26T16:10:26.661Z,45.55
2022-12-26T16:14:13.857Z,47.72
2022-12-26T16:17:22.332Z,43.45
2022-12-26T16:21:06.146Z,44.97
2022-12-26T16:24:14.531Z,43.08
2022-12-26T16:27:39.303Z,42.50
2022-12-26T16:30:45.119Z,43.95
2022-12-26T16:34:18.332Z,42.95
2022-12-26T16:37:25.792Z,43.28
2022-12-26T16:40:51.786Z,44.03
2022-12-26T16:44:18.303Z,43.60
2022-12-26T16:47:43.487Z,46.60
2022-12-26T16:50:55.191Z,42.85
2022-12-26T16:54:38.704Z,44.05
2022-12-26T16:57:44.189Z,47.92
2022-12-26T17:01:10.473Z,51.90
2022-12-26T17:04:19.671Z,51.35
2022-12-26T17:07:43.087Z,50.60
2022-12-26T17:10:50.790Z,51.20
2022-12-26T17:14:15.158Z,52.05
2022-12-26T17:17:23.405Z,48.17
2022-12-26T17:20:51.907Z,48.95
2022-12-26T17:24:26.533Z,48.55
2022-12-26T17:27:50.415Z,48.58
2022-12-26T17:30:55.713Z,49.83
2022-12-26T17:34:21.722Z,48.42
2022-12-26T17:37:28.361Z,47.08
2022-12-26T17:40:53.290Z,45.05
2022-12-26T17:43:58.434Z,46.60
2022-12-26T17:47:31.322Z,49.72
2022-12-26T17:50:48.121Z,53.15
2022-12-26T17:54:11.862Z,49.47
2022-12-26T17:57:22.566Z,51.40
2022-12-26T18:00:46.657Z,48.17
2022-12-26T18:03:53.151Z,46.30
2022-12-26T18:07:17.022Z,47.72
2022-12-26T18:10:25.326Z,50.15
2022-12-26T18:13:49.335Z,46.17
2022-12-26T18:16:54.856Z,46.03
2022-12-26T18:20:18.622Z,48.50
2022-12-26T18:23:24.500Z,48.38
2022-12-26T18:26:48.501Z,52.78
2022-12-26T18:29:53.873Z,45.70
2022-12-26T18:33:17.710Z,49.13
2022-12-26T18:36:32.080Z,48.30
2022-12-26T18:39:55.967Z,49.85
2022-12-26T18:43:04.851Z,47.72
2022-12-26T18:46:39.362Z,46.95
2022-12-26T18:49:45.943Z,51.08
2022-12-26T18:53:09.921Z,45.30
2022-12-26T18:56:19.073Z,47.50
2022-12-26T18:59:42.634Z,49.80
2022-12-26T19:02:48.729Z,51.00
2022-12-26T19:06:13.053Z,51.53
2022-12-26T19:09:18.301Z,48.30
2022-12-26T19:12:24.134Z,50.70
2022-12-26T19:15:29.693Z,51.63
2022-12-26T19:18:35.385Z,52.55
2022-12-26T19:21:40.718Z,52.17
2022-12-26T19:24:46.709Z,50.67
2022-12-26T19:27:52.389Z,54.72
2022-12-26T19:30:57.831Z,50.35
2022-12-26T19:34:03.191Z,51.00
2022-12-26T19:37:08.741Z,49.13
2022-12-26T19:40:21.280Z,55.60
2022-12-26T19:43:30.488Z,52.92
2022-12-26T19:46:35.462Z,54.85
2022-12-26T19:49:42.349Z,53.05
2022-12-26T19:52:47.364Z,52.50
2022-12-26T19:55:52.912Z,55.75
2022-12-26T19:58:59.621Z,53.88
2022-12-26T20:02:05.988Z,54.50
2022-12-26T20:05:12.136Z,54.58
2022-12-26T20:08:17.428Z,57.85
2022-12-26T20:11:27.815Z,53.92
2022-12-26T20:14:33.616Z,51.83
2022-12-26T20:17:38.929Z,53.70
2022-12-26T20:20:53.188Z,52.83
2022-12-26T20:24:00.466Z,48.60
2022-12-26T20:27:06.139Z,48.63
2022-12-26T20:30:13.084Z,49.15
2022-12-26T20:33:18.518Z,50.35
2022-12-26T20:36:27.677Z,50.40
2022-12-26T20:39:32.979Z,48.85
2022-12-26T20:42:38.282Z,54.15
2022-12-26T20:45:43.557Z,52.05
2022-12-26T20:48:51.920Z,51.35
2022-12-26T20:51:57.175Z,51.33
2022-12-26T20:55:02.368Z,49.38
2022-12-26T20:58:08.039Z,49.70
2022-12-26T21:01:19.578Z,49.80
2022-12-26T21:04:25.158Z,50.30
2022-12-26T21:07:32.910Z,50.90
2022-12-26T21:10:38.689Z,52.15
2022-12-26T21:13:45.993Z,50.67
2022-12-26T21:16:58.027Z,49.88
2022-12-26T21:23:08.585Z,53.75
2022-12-26T21:26:14.526Z,46.83
2022-12-26T21:29:27.030Z,46.83
2022-12-26T21:32:32.454Z,51.78
2022-12-26T21:35:38.355Z,50.95
2022-12-26T21:38:44.720Z,55.00
2022-12-26T21:41:50.411Z,51.33
2022-12-26T21:44:56.043Z,52.00
2022-12-26T21:48:01.384Z,50.53
2022-12-26T21:51:09.926Z,49.60
2022-12-26T21:54:34.065Z,47.78
2022-12-26T21:57:39.458Z,46.95
2022-12-26T22:00:45.444Z,48.10
2022-12-26T22:04:09.459Z,48.22
2022-12-26T22:07:14.640Z,48.05
2022-12-26T22:10:38.482Z,49.15
2022-12-26T22:13:45.770Z,50.17
2022-12-26T22:16:53.206Z,48.63
2022-12-26T22:19:58.350Z,48.42
2022-12-26T22:23:04.456Z,51.47
2022-12-26T22:26:13.229Z,51.08
2022-12-26T22:29:18.706Z,50.78
2022-12-26T22:32:24.068Z,50.35
2022-12-26T22:35:29.548Z,47.05
2022-12-26T22:38:37.712Z,48.92
2022-12-26T22:41:45.839Z,48.08
2022-12-26T22:44:51.078Z,52.25
2022-12-26T22:47:56.435Z,49.28
2022-12-26T22:51:01.755Z,49.45
2022-12-26T22:54:06.802Z,51.35
2022-12-26T22:57:12.167Z,49.13
2022-12-26T23:00:17.204Z,49.17
2022-12-26T23:03:23.707Z,49.70
2022-12-26T23:06:35.549Z,54.05
2022-12-26T23:09:40.991Z,53.33
2022-12-26T23:12:46.339Z,53.15
2022-12-26T23:16:14.867Z,58.15
2022-12-26T23:20:04.961Z,57.33
2022-12-26T23:23:10.717Z,55.33
2022-12-26T23:26:16.429Z,51.45
2022-12-26T23:29:42.659Z,49.72
2022-12-26T23:32:53.657Z,52.03
2022-12-26T23:35:58.900Z,48.97
2022-12-26T23:39:04.237Z,48.30
2022-12-26T23:42:09.465Z,45.67
2022-12-26T23:45:15.680Z,47.63
2022-12-26T23:48:21.409Z,46.22
2022-12-26T23:51:26.328Z,46.90
2022-12-26T23:54:31.832Z,46.90
2022-12-26T23:57:37.335Z,46.00
